Time;durP1;ratioP1;P1;durP2;ratioP2;P2;SDS_P1;SDS_P2;PMS_P1;PMS_P2;Temp;Humidity;BMP_temperature;BMP_pressure;BME280_temperature;BME280_humidity;BME280_pressure;Samples;Min_cycle;Max_cycle;Signal;HPM_P1;HPM_P2
2023/05/09 00:00:17;;;;;;;6.85;6.22;;;11.10;99.90;;;;;;5073566;28;20036;-83
2023/05/09 00:02:44;;;;;;;10.63;7.57;;;11.00;99.90;;;;;;5092041;28;20041;-83
2023/05/09 00:05:10;;;;;;;7.72;7.00;;;11.00;99.90;;;;;;5093706;28;20027;-82
2023/05/09 00:07:36;;;;;;;7.40;6.55;;;11.00;99.90;;;;;;5094031;28;20019;-83
2023/05/09 00:10:03;;;;;;;7.70;6.93;;;11.00;99.90;;;;;;5094011;28;20115;-83
2023/05/09 00:12:29;;;;;;;8.48;6.65;;;11.00;99.90;;;;;;5079575;28;20032;-84
2023/05/09 00:14:55;;;;;;;6.43;5.93;;;10.90;99.90;;;;;;5078073;28;20020;-82
2023/05/09 00:17:22;;;;;;;6.90;6.30;;;11.00;99.90;;;;;;5093434;28;20022;-82
2023/05/09 00:19:50;;;;;;;6.43;5.93;;;11.00;99.90;;;;;;5093801;28;20494;-82
2023/05/09 00:22:17;;;;;;;6.50;6.00;;;11.00;99.90;;;;;;5094551;28;20034;-82
2023/05/09 00:24:43;;;;;;;6.82;6.07;;;11.00;99.90;;;;;;5089926;28;20093;-83
2023/05/09 00:27:09;;;;;;;6.82;6.22;;;11.00;99.90;;;;;;5084597;28;20020;-83
2023/05/09 00:29:35;;;;;;;7.45;6.80;;;10.90;99.90;;;;;;5056079;28;20032;-83
2023/05/09 00:32:00;;;;;;;6.70;6.10;;;10.90;99.90;;;;;;5068986;28;20036;-82
2023/05/09 00:34:26;;;;;;;7.57;6.97;;;10.90;99.90;;;;;;5036596;28;20553;-83
2023/05/09 00:36:52;;;;;;;7.72;7.13;;;11.00;99.90;;;;;;5053922;28;20681;-84
2023/05/09 00:39:18;;;;;;;6.97;6.43;;;11.00;99.90;;;;;;5055956;28;20032;-82
2023/05/09 00:41:43;;;;;;;7.40;6.70;;;11.00;99.90;;;;;;5057480;28;20028;-83
2023/05/09 00:44:09;;;;;;;7.40;6.80;;;11.00;99.90;;;;;;5049474;28;20121;-84
2023/05/09 00:46:35;;;;;;;7.57;6.97;;;11.00;99.90;;;;;;5056239;28;20370;-82
2023/05/09 00:49:01;;;;;;;7.65;6.85;;;10.90;99.90;;;;;;5066862;28;20037;-82
2023/05/09 00:51:28;;;;;;;6.72;6.00;;;10.90;99.90;;;;;;5040153;28;20093;-83
2023/05/09 00:53:54;;;;;;;10.05;8.85;;;10.90;99.90;;;;;;5072541;28;20024;-81
2023/05/09 00:56:20;;;;;;;9.90;8.82;;;10.80;99.90;;;;;;5054242;28;20071;-83
2023/05/09 00:58:46;;;;;;;14.85;10.98;;;10.70;99.90;;;;;;5053455;28;20371;-82
2023/05/09 01:01:12;;;;;;;15.48;10.43;;;10.70;99.90;;;;;;5051427;28;20115;-83
2023/05/09 01:03:40;;;;;;;14.63;10.55;;;10.60;99.90;;;;;;5055994;28;20111;-82
2023/05/09 01:06:31;;;;;;;13.35;10.35;;;10.60;99.90;;;;;;5064183;28;20025;-82
2023/05/09 01:09:26;;;;;;;14.07;9.87;;;10.60;99.90;;;;;;5045968;28;20032;-83
2023/05/09 01:12:38;;;;;;;9.95;8.93;;;10.60;99.90;;;;;;5014882;28;20348;-84
2023/05/09 01:15:16;;;;;;;9.20;8.27;;;10.50;99.90;;;;;;5043135;28;20479;-83
2023/05/09 01:17:58;;;;;;;8.07;7.28;;;10.40;99.90;;;;;;5048341;28;20107;-82
2023/05/09 01:20:45;;;;;;;8.57;7.30;;;10.40;99.90;;;;;;5073407;28;20024;-83
2023/05/09 01:23:45;;;;;;;8.65;7.32;;;10.40;99.90;;;;;;5073679;28;20025;-82
2023/05/09 01:26:46;;;;;;;8.02;7.22;;;10.30;99.90;;;;;;5073440;28;20028;-83
2023/05/09 01:29:35;;;;;;;7.57;6.85;;;10.30;99.90;;;;;;5064820;28;20414;-82
2023/05/09 01:32:10;;;;;;;7.13;6.53;;;10.30;99.90;;;;;;5089148;28;20077;-82
2023/05/09 01:34:39;;;;;;;10.95;6.63;;;10.20;99.90;;;;;;5092311;28;20028;-82
2023/05/09 01:37:06;;;;;;;6.82;6.10;;;10.10;99.90;;;;;;5082786;28;20028;-83
2023/05/09 01:39:33;;;;;;;7.15;6.47;;;10.10;99.90;;;;;;5080204;28;20039;-82
2023/05/09 01:42:02;;;;;;;8.45;6.18;;;10.10;99.90;;;;;;5088606;28;20052;-82
2023/05/09 01:44:36;;;;;;;6.97;6.38;;;10.10;99.90;;;;;;5072284;28;20474;-83
2023/05/09 01:47:02;;;;;;;7.03;6.43;;;10.00;99.90;;;;;;5072253;28;20111;-82
2023/05/09 01:49:31;;;;;;;7.65;7.00;;;10.00;99.90;;;;;;5072279;28;20025;-82
2023/05/09 01:51:59;;;;;;;6.55;5.95;;;10.00;99.90;;;;;;5090562;28;20082;-82
2023/05/09 01:54:26;;;;;;;6.80;6.20;;;10.00;99.90;;;;;;5092129;28;20021;-82
2023/05/09 01:56:54;;;;;;;7.13;6.18;;;10.00;99.90;;;;;;5092423;28;20024;-82
2023/05/09 01:59:21;;;;;;;9.43;6.30;;;9.90;99.90;;;;;;5084163;28;20055;-82
2023/05/09 02:01:48;;;;;;;9.15;5.90;;;9.90;99.90;;;;;;5078731;28;20370;-83
2023/05/09 02:04:16;;;;;;;7.13;6.03;;;9.90;99.90;;;;;;5092411;28;20032;-83
2023/05/09 02:06:43;;;;;;;5.43;4.75;;;9.90;99.90;;;;;;5091311;28;20027;-82
2023/05/09 02:09:10;;;;;;;7.55;5.82;;;9.90;99.90;;;;;;5071784;28;20028;-82
2023/05/09 02:11:36;;;;;;;5.82;5.10;;;9.90;99.90;;;;;;5078950;28;20031;-82
2023/05/09 02:14:02;;;;;;;5.53;5.07;;;9.90;99.90;;;;;;5078149;28;20453;-82
2023/05/09 02:16:28;;;;;;;8.07;5.75;;;9.90;99.90;;;;;;5072779;28;20518;-82
2023/05/09 02:18:55;;;;;;;6.60;6.00;;;;;;;;;;5085659;28;20022;-82
2023/05/09 02:21:20;;;;;;;7.72;6.22;;;9.90;99.90;;;;;;5071845;28;20025;-82
2023/05/09 02:23:46;;;;;;;9.23;6.25;;;9.80;99.90;;;;;;5081512;28;20067;-82
2023/05/09 02:26:13;;;;;;;6.07;4.90;;;9.80;99.90;;;;;;5073183;28;20025;-81
2023/05/09 02:28:42;;;;;;;8.82;5.68;;;9.80;99.90;;;;;;5059879;28;20048;-82
2023/05/09 02:31:09;;;;;;;6.43;5.82;;;9.80;99.90;;;;;;5052979;28;20052;-82
2023/05/09 02:33:37;;;;;;;11.82;6.30;;;9.80;99.90;;;;;;5058148;28;20028;-82
2023/05/09 02:36:04;;;;;;;7.10;5.35;;;9.80;99.90;;;;;;5037910;28;20039;-83
2023/05/09 02:38:31;;;;;;;6.30;5.07;;;9.80;99.90;;;;;;5065975;28;20064;-82
2023/05/09 02:40:56;;;;;;;12.50;5.60;;;9.80;99.90;;;;;;5076285;28;20047;-82
2023/05/09 02:43:22;;;;;;;6.03;5.32;;;9.80;99.90;;;;;;5058321;28;20447;-82
2023/05/09 02:45:48;;;;;;;5.90;5.20;;;9.80;99.90;;;;;;5076344;28;20089;-82
2023/05/09 02:48:14;;;;;;;5.47;4.57;;;9.70;99.90;;;;;;5076480;28;20076;-83
2023/05/09 02:50:42;;;;;;;6.55;3.65;;;9.70;99.90;;;;;;5076461;28;20035;-82
2023/05/09 02:53:08;;;;;;;5.00;4.18;;;9.70;99.90;;;;;;5076434;28;20016;-82
2023/05/09 02:55:34;;;;;;;5.03;3.95;;;9.70;99.90;;;;;;5047057;28;20025;-84
2023/05/09 02:58:00;;;;;;;7.68;5.35;;;9.60;99.90;;;;;;5038313;28;20025;-83
2023/05/09 03:00:26;;;;;;;4.55;3.40;;;9.70;99.90;;;;;;5061191;28;20386;-83
2023/05/09 03:02:51;;;;;;;5.70;3.67;;;9.60;99.90;;;;;;5076378;28;20099;-83
2023/05/09 03:05:17;;;;;;;4.78;3.80;;;9.60;99.90;;;;;;5058000;28;20067;-82
2023/05/09 03:07:43;;;;;;;7.88;5.45;;;9.60;99.90;;;;;;5075694;28;20029;-82
2023/05/09 03:10:12;;;;;;;6.05;4.70;;;9.60;99.90;;;;;;5076144;28;20032;-81
2023/05/09 03:12:38;;;;;;;7.18;5.60;;;9.50;99.90;;;;;;5061259;28;20036;-81
2023/05/09 03:15:07;;;;;;;7.13;4.85;;;9.60;99.90;;;;;;5048748;28;20079;-82
2023/05/09 03:17:34;;;;;;;5.60;4.90;;;9.50;99.90;;;;;;5057605;28;20036;-82
2023/05/09 03:20:00;;;;;;;7.65;4.97;;;9.50;99.90;;;;;;5075978;28;20025;-82
2023/05/09 03:22:26;;;;;;;8.93;5.00;;;9.40;99.90;;;;;;5073842;28;20031;-82
2023/05/09 03:24:51;;;;;;;6.20;4.70;;;9.40;99.90;;;;;;5037643;28;20111;-83
2023/05/09 03:27:18;;;;;;;8.00;5.57;;;9.40;99.90;;;;;;5055504;28;20060;-82
2023/05/09 03:29:43;;;;;;;8.27;5.28;;;9.40;99.90;;;;;;5054030;28;20110;-81
2023/05/09 03:32:09;;;;;;;5.50;4.90;;;9.40;99.90;;;;;;5062368;28;20448;-81
2023/05/09 03:34:35;;;;;;;7.65;4.88;;;9.40;99.90;;;;;;5055629;28;20451;-82
2023/05/09 03:37:01;;;;;;;8.48;5.13;;;9.40;99.90;;;;;;5044238;28;20028;-82
2023/05/09 03:39:26;;;;;;;7.32;4.60;;;9.40;99.90;;;;;;5071634;28;20056;-82
2023/05/09 03:41:52;;;;;;;10.27;4.40;;;9.30;99.90;;;;;;5037528;28;20021;-82
2023/05/09 03:44:18;;;;;;;4.72;4.07;;;9.30;99.90;;;;;;5037418;28;20064;-81
2023/05/09 03:46:44;;;;;;;12.80;5.13;;;9.20;99.90;;;;;;5055290;28;20071;-81
2023/05/09 03:49:09;;;;;;;6.57;4.55;;;9.30;99.90;;;;;;5051800;28;20447;-82
2023/05/09 03:51:35;;;;;;;5.32;4.10;;;9.30;99.90;;;;;;5045971;28;20355;-83
2023/05/09 03:54:01;;;;;;;5.85;3.92;;;9.30;99.90;;;;;;5037002;28;20031;-81
2023/05/09 03:56:27;;;;;;;9.63;5.43;;;9.00;99.90;;;;;;5060145;28;20028;-82
2023/05/09 03:58:52;;;;;;;7.38;4.82;;;9.00;99.90;;;;;;5057115;28;20024;-81
2023/05/09 04:01:18;;;;;;;6.10;5.22;;;9.10;99.90;;;;;;5075000;28;20028;-81
2023/05/09 04:03:44;;;;;;;7.50;5.35;;;9.20;99.90;;;;;;5057116;28;20064;-82
2023/05/09 04:06:10;;;;;;;7.40;5.18;;;9.30;99.90;;;;;;5057190;28;20035;-82
2023/05/09 04:08:36;;;;;;;6.85;4.95;;;9.40;99.90;;;;;;5074772;28;20033;-81
2023/05/09 04:11:02;;;;;;;7.15;4.65;;;9.40;99.90;;;;;;5048126;28;20021;-81
2023/05/09 04:13:29;;;;;;;8.13;5.05;;;9.50;99.90;;;;;;5056859;28;20020;-82
2023/05/09 04:15:55;;;;;;;6.78;5.20;;;9.60;99.90;;;;;;5052655;28;20044;-82
2023/05/09 04:18:21;;;;;;;6.68;5.68;;;9.60;99.90;;;;;;5037876;28;20060;-82
2023/05/09 04:20:47;;;;;;;5.32;4.82;;;9.70;99.90;;;;;;5074645;28;20122;-81
2023/05/09 04:23:12;;;;;;;6.28;4.85;;;9.80;99.90;;;;;;5074379;28;20400;-82
2023/05/09 04:25:38;;;;;;;8.90;5.45;;;9.90;99.90;;;;;;5074758;28;20051;-82
2023/05/09 04:28:04;;;;;;;10.05;6.13;;;9.90;99.90;;;;;;5068416;28;20055;-83
2023/05/09 04:30:30;;;;;;;11.18;5.90;;;9.90;99.90;;;;;;5093538;28;20124;-82
2023/05/09 04:32:56;;;;;;;9.25;5.32;;;10.00;99.90;;;;;;5087682;28;20079;-82
2023/05/09 04:35:22;;;;;;;7.75;5.20;;;10.00;99.90;;;;;;5075696;28;20036;-82
2023/05/09 04:37:48;;;;;;;6.78;5.05;;;10.10;99.90;;;;;;5094814;28;20091;-82
2023/05/09 04:40:13;;;;;;;6.70;5.55;;;10.10;99.90;;;;;;5094599;28;20034;-83
2023/05/09 04:42:41;;;;;;;9.70;5.40;;;10.20;99.90;;;;;;5094451;28;20398;-82
2023/05/09 04:45:08;;;;;;;6.35;5.10;;;10.30;99.90;;;;;;5079311;28;20074;-83
2023/05/09 04:47:33;;;;;;;7.68;5.15;;;10.30;99.90;;;;;;5085038;28;20080;-82
2023/05/09 04:49:59;;;;;;;8.07;5.18;;;10.40;99.90;;;;;;5084831;28;20420;-82
2023/05/09 04:52:25;;;;;;;8.15;5.50;;;10.40;99.90;;;;;;5072990;28;20024;-82
2023/05/09 04:54:51;;;;;;;5.15;4.65;;;10.40;99.90;;;;;;5074359;28;20032;-82
2023/05/09 04:57:17;;;;;;;6.90;5.43;;;10.50;99.90;;;;;;5092521;28;20028;-82
2023/05/09 04:59:43;;;;;;;5.80;4.55;;;10.50;99.90;;;;;;5073696;28;20077;-83
2023/05/09 05:02:08;;;;;;;12.57;4.80;;;10.50;99.90;;;;;;5072681;28;20111;-83
2023/05/09 05:04:35;;;;;;;6.95;5.15;;;10.60;99.90;;;;;;5072139;28;20035;-82
2023/05/09 05:07:00;;;;;;;8.30;5.32;;;10.70;99.90;;;;;;5083729;28;20023;-83
2023/05/09 05:09:26;;;;;;;6.95;5.63;;;10.80;99.90;;;;;;5086242;28;20032;-83
2023/05/09 05:11:52;;;;;;;7.70;5.38;;;10.90;99.90;;;;;;5076916;28;20085;-82
2023/05/09 05:14:18;;;;;;;9.35;5.53;;;10.90;99.90;;;;;;5072983;28;20131;-82
2023/05/09 05:16:43;;;;;;;7.03;5.13;;;11.00;99.90;;;;;;5092174;28;20039;-82
2023/05/09 05:19:09;;;;;;;7.05;5.15;;;11.10;99.90;;;;;;5084222;28;20024;-83
2023/05/09 05:21:35;;;;;;;7.75;5.70;;;11.00;99.90;;;;;;5088234;28;20024;-83
2023/05/09 05:24:01;;;;;;;11.93;6.00;;;11.10;99.90;;;;;;5078787;28;20104;-82
2023/05/09 05:26:27;;;;;;;8.75;5.78;;;11.10;99.90;;;;;;5073785;28;20414;-82
2023/05/09 05:28:55;;;;;;;11.68;5.97;;;11.20;99.90;;;;;;5077531;28;20477;-83
2023/05/09 05:31:21;;;;;;;9.20;5.82;;;11.20;99.90;;;;;;5089908;28;20024;-83
2023/05/09 05:33:46;;;;;;;8.57;5.55;;;11.40;99.90;;;;;;5073574;28;20095;-82
2023/05/09 05:36:12;;;;;;;8.90;5.80;;;11.50;99.90;;;;;;5088971;28;20023;-82
2023/05/09 05:38:38;;;;;;;7.60;6.25;;;11.50;99.90;;;;;;5077208;28;20438;-83
2023/05/09 05:41:04;;;;;;;7.15;5.80;;;11.60;99.90;;;;;;5072211;28;20032;-82
2023/05/09 05:43:30;;;;;;;5.90;5.22;;;11.70;99.90;;;;;;5073628;28;20029;-83
2023/05/09 05:45:56;;;;;;;7.22;5.70;;;11.60;99.90;;;;;;5079454;28;20061;-82
2023/05/09 05:48:21;;;;;;;9.77;6.28;;;11.70;99.90;;;;;;5089687;28;20091;-83
2023/05/09 05:50:47;;;;;;;6.80;5.20;;;11.70;99.90;;;;;;5074643;28;20055;-82
2023/05/09 05:53:13;;;;;;;5.55;4.70;;;11.70;99.90;;;;;;5092189;28;20023;-83
2023/05/09 05:55:39;;;;;;;6.65;5.35;;;11.80;99.90;;;;;;5075515;28;20033;-83
2023/05/09 05:58:04;;;;;;;5.75;5.20;;;11.80;99.90;;;;;;5087277;28;20078;-84
2023/05/09 06:00:30;;;;;;;6.13;5.63;;;11.90;99.90;;;;;;5092008;28;20030;-83
2023/05/09 06:02:56;;;;;;;7.00;6.40;;;12.10;99.90;;;;;;5092366;28;20020;-83
2023/05/09 06:05:22;;;;;;;7.78;6.28;;;12.30;99.90;;;;;;5092391;28;20027;-83
2023/05/09 06:07:47;;;;;;;8.73;5.93;;;12.40;99.90;;;;;;5089300;28;20027;-84
2023/05/09 06:10:15;;;;;;;7.35;6.60;;;12.50;99.90;;;;;;5074030;28;20024;-81
2023/05/09 06:12:41;;;;;;;15.18;6.88;;;12.50;99.90;;;;;;5080585;28;20378;-82
2023/05/09 06:15:07;;;;;;;9.02;6.88;;;12.60;99.90;;;;;;5075779;28;20031;-82
2023/05/09 06:17:33;;;;;;;7.47;6.63;;;12.70;99.90;;;;;;5089825;28;20024;-83
2023/05/09 06:19:59;;;;;;;6.95;6.35;;;12.70;99.90;;;;;;5095779;28;20105;-82
2023/05/09 06:22:25;;;;;;;6.18;5.57;;;12.90;99.90;;;;;;5088126;28;20474;-82
2023/05/09 06:24:50;;;;;;;7.15;5.80;;;12.90;99.90;;;;;;5075744;28;20111;-82
2023/05/09 06:27:16;;;;;;;8.80;6.43;;;13.10;99.90;;;;;;5075213;28;20021;-82
2023/05/09 06:29:42;;;;;;;7.03;6.43;;;13.20;99.90;;;;;;5058985;28;20025;-82
2023/05/09 06:32:08;;;;;;;8.02;7.20;;;13.30;99.90;;;;;;5040375;28;20029;-83
2023/05/09 06:34:33;;;;;;;9.02;6.50;;;13.10;99.90;;;;;;5072003;28;20089;-83
2023/05/09 06:36:59;;;;;;;8.23;7.53;;;13.20;99.70;;;;;;5059072;28;20113;-83
2023/05/09 06:39:25;;;;;;;7.22;6.50;;;13.40;99.20;;;;;;5049423;28;20033;-83
2023/05/09 06:41:51;;;;;;;9.90;7.68;;;13.50;99.60;;;;;;5038321;28;20025;-84
2023/05/09 06:44:16;;;;;;;8.10;7.40;;;13.50;98.80;;;;;;5059717;28;20073;-84
2023/05/09 06:46:42;;;;;;;9.10;8.20;;;13.50;97.70;;;;;;5058613;28;20162;-84
2023/05/09 06:49:08;;;;;;;8.80;8.00;;;13.70;98.80;;;;;;5058177;28;20035;-82
2023/05/09 06:51:34;;;;;;;8.35;7.57;;;13.80;97.60;;;;;;5076189;28;20036;-82
2023/05/09 06:53:59;;;;;;;8.90;8.10;;;13.80;98.50;;;;;;5076305;28;20029;-81
2023/05/09 06:56:25;;;;;;;8.05;7.25;;;13.40;96.90;;;;;;5047079;28;20021;-80
2023/05/09 06:58:51;;;;;;;7.15;6.45;;;13.50;99.30;;;;;;5038673;28;20482;-80
2023/05/09 07:01:17;;;;;;;9.00;8.10;;;13.80;99.90;;;;;;5061317;28;20028;-80
2023/05/09 07:03:43;;;;;;;8.55;7.63;;;13.90;99.20;;;;;;5058006;28;20070;-80
2023/05/09 07:06:09;;;;;;;8.35;7.65;;;14.00;99.70;;;;;;5076006;28;20466;-80
2023/05/09 07:08:35;;;;;;;8.48;7.68;;;14.10;98.40;;;;;;5057772;28;20448;-80
2023/05/09 07:11:00;;;;;;;9.18;7.32;;;14.20;98.10;;;;;;5057129;28;20078;-81
2023/05/09 07:13:28;;;;;;;7.28;6.47;;;14.20;95.60;;;;;;5055808;28;20083;-81
2023/05/09 07:15:54;;;;;;;9.30;7.20;;;14.20;97.50;;;;;;5055473;28;20090;-80
2023/05/09 07:18:19;;;;;;;7.88;6.57;;;14.20;96.90;;;;;;5044915;28;20024;-80
2023/05/09 07:20:45;;;;;;;7.43;6.82;;;14.50;96.70;;;;;;5057869;28;20535;-81
2023/05/09 07:23:11;;;;;;;7.63;6.90;;;14.70;95.20;;;;;;5075254;28;20031;-81
2023/05/09 07:25:37;;;;;;;8.02;7.22;;;14.90;95.20;;;;;;5058016;28;20078;-80
2023/05/09 07:28:03;;;;;;;7.25;6.55;;;14.90;92.90;;;;;;5051959;28;20051;-80
2023/05/09 07:30:28;;;;;;;7.68;6.93;;;15.00;92.20;;;;;;5088958;28;20119;-81
2023/05/09 07:32:54;;;;;;;7.45;6.60;;;15.20;92.60;;;;;;5094658;28;20139;-80
2023/05/09 07:35:20;;;;;;;8.38;7.57;;;15.10;91.10;;;;;;5094648;28;20081;-81
2023/05/09 07:37:46;;;;;;;7.00;6.45;;;15.20;92.00;;;;;;5094247;28;20032;-80
2023/05/09 07:40:12;;;;;;;9.55;7.68;;;15.30;93.40;;;;;;5092045;28;20068;-80
2023/05/09 07:42:38;;;;;;;7.90;7.30;;;15.40;92.10;;;;;;5074206;28;20055;-81
2023/05/09 07:45:05;;;;;;;7.80;7.10;;;15.40;91.00;;;;;;5093598;28;20083;-80
2023/05/09 07:47:31;;;;;;;7.75;7.05;;;15.50;92.10;;;;;;5094411;28;20047;-80
2023/05/09 07:49:57;;;;;;;9.50;8.60;;;15.60;92.10;;;;;;5081953;28;20052;-80
2023/05/09 07:52:23;;;;;;;7.95;7.32;;;15.50;90.70;;;;;;5073777;28;20443;-81
2023/05/09 07:54:49;;;;;;;8.50;7.70;;;15.50;93.10;;;;;;5081463;28;20439;-80
2023/05/09 07:57:15;;;;;;;8.40;7.70;;;15.40;90.60;;;;;;5089376;28;20414;-80
2023/05/09 07:59:41;;;;;;;9.98;9.10;;;15.30;90.30;;;;;;5074912;28;20451;-80
2023/05/09 08:02:07;;;;;;;9.60;8.70;;;15.40;91.30;;;;;;5093881;28;20079;-80
2023/05/09 08:04:36;;;;;;;8.93;8.10;;;15.50;91.40;;;;;;5093929;28;20031;-80
2023/05/09 08:07:03;;;;;;;10.30;9.40;;;15.40;90.90;;;;;;5078062;28;20024;-80
2023/05/09 08:09:29;;;;;;;8.93;7.75;;;15.60;92.20;;;;;;5087977;28;20103;-80
2023/05/09 08:11:55;;;;;;;10.68;9.68;;;15.60;90.10;;;;;;5091927;28;20130;-81
2023/05/09 08:14:20;;;;;;;12.15;11.05;;;15.80;89.20;;;;;;5086133;28;20090;-80
2023/05/09 08:16:46;;;;;;;8.02;7.32;;;15.80;88.50;;;;;;5079247;28;20042;-80
2023/05/09 08:19:12;;;;;;;8.27;7.63;;;15.90;85.90;;;;;;5084713;28;20028;-80
2023/05/09 08:21:38;;;;;;;8.75;8.05;;;15.80;87.60;;;;;;5093570;28;20070;-81
2023/05/09 08:24:06;;;;;;;8.32;7.60;;;16.10;89.10;;;;;;5091513;28;20437;-80
2023/05/09 08:26:33;;;;;;;8.32;7.60;;;16.10;84.60;;;;;;5078243;28;20028;-84
2023/05/09 08:29:00;;;;;;;9.48;7.60;;;16.20;83.60;;;;;;5072930;28;20044;-84
2023/05/09 08:31:26;;;;;;;8.70;7.53;;;16.20;83.20;;;;;;5073326;28;20048;-83
2023/05/09 08:33:51;;;;;;;8.10;7.47;;;16.20;88.10;;;;;;5072270;28;20052;-83
2023/05/09 08:36:17;;;;;;;8.70;7.95;;;16.50;87.20;;;;;;5087395;28;20439;-83
2023/05/09 08:38:43;;;;;;;7.30;6.70;;;16.60;85.30;;;;;;5073227;28;20020;-83
2023/05/09 08:41:09;;;;;;;6.80;6.07;;;16.70;84.40;;;;;;5073961;28;20070;-81
2023/05/09 08:43:36;;;;;;;7.10;6.40;;;16.90;85.70;;;;;;5089836;28;20093;-82
2023/05/09 08:46:12;;;;;;;8.00;7.30;;;17.10;83.20;;;;;;5093420;28;20351;-83
2023/05/09 08:48:39;;;;;;;8.23;6.03;;;17.20;82.90;;;;;;5093018;28;20032;-82
2023/05/09 08:51:06;;;;;;;9.10;8.15;;;17.10;80.40;;;;;;5084961;28;20020;-82
2023/05/09 08:53:33;;;;;;;7.50;6.80;;;17.00;79.90;;;;;;5079086;28;20047;-79
2023/05/09 08:56:02;;;;;;;7.82;7.03;;;17.30;81.20;;;;;;5093150;28;20035;-85
2023/05/09 08:58:28;;;;;;;7.57;6.88;;;17.50;80.80;;;;;;5092213;28;20027;-83
2023/05/09 09:00:55;;;;;;;8.30;7.32;;;17.70;84.80;;;;;;5073976;28;20029;-82
2023/05/09 09:03:21;;;;;;;7.28;6.68;;;17.70;81.80;;;;;;5091049;28;20032;-84
2023/05/09 09:05:48;;;;;;;9.80;6.07;;;17.50;77.20;;;;;;5093011;28;20062;-81
2023/05/09 09:08:14;;;;;;;8.07;7.28;;;17.60;78.10;;;;;;5092518;28;20359;-84
2023/05/09 09:10:45;;;;;;;7.70;7.05;;;17.70;77.60;;;;;;5093005;28;20502;-82
2023/05/09 09:13:12;;;;;;;8.30;7.40;;;18.00;81.20;;;;;;5073732;28;20025;-82
2023/05/09 09:15:40;;;;;;;8.35;6.20;;;18.10;75.10;;;;;;5072310;28;20056;-84
2023/05/09 09:18:08;;;;;;;7.88;7.07;;;18.00;72.70;;;;;;5075070;28;20367;-82
2023/05/09 09:20:52;;;;;;;7.40;6.22;;;17.60;74.00;;;;;;5092717;28;20490;-81
2023/05/09 09:23:23;;;;;;;7.22;6.53;;;17.90;74.60;;;;;;5092563;28;20031;-82
2023/05/09 09:25:56;;;;;;;10.80;8.45;;;18.10;76.90;;;;;;5094300;28;20031;-83
2023/05/09 09:28:22;;;;;;;8.18;7.38;;;18.20;78.30;;;;;;5066814;28;20051;-82
2023/05/09 09:30:48;;;;;;;8.45;7.68;;;18.30;79.70;;;;;;5048934;28;20109;-80
2023/05/09 09:33:25;;;;;;;9.35;8.52;;;18.20;76.70;;;;;;5055699;28;20059;-81
2023/05/09 09:35:53;;;;;;;9.27;8.38;;;18.50;79.10;;;;;;5064441;28;20025;-83
2023/05/09 09:38:20;;;;;;;8.88;8.07;;;18.60;80.00;;;;;;5041932;28;20051;-81
2023/05/09 09:40:56;;;;;;;8.73;7.97;;;18.20;73.00;;;;;;5070324;28;20028;-81
2023/05/09 09:43:29;;;;;;;7.60;6.80;;;18.20;76.20;;;;;;5053351;28;20129;-81
2023/05/09 09:45:56;;;;;;;7.88;7.18;;;18.40;78.50;;;;;;5056655;28;20371;-83
2023/05/09 09:48:49;;;;;;;7.15;6.57;;;18.40;75.90;;;;;;5059420;28;20423;-80
2023/05/09 09:51:17;;;;;;;8.38;6.53;;;18.10;74.50;;;;;;5077418;28;20028;-82
2023/05/09 09:53:43;;;;;;;6.97;6.32;;;18.30;76.00;;;;;;5059866;28;20038;-83
2023/05/09 09:56:10;;;;;;;6.32;5.57;;;18.50;78.10;;;;;;5062686;28;20021;-81
2023/05/09 09:58:36;;;;;;;6.40;5.85;;;18.50;73.70;;;;;;5051016;28;20139;-80
2023/05/09 10:01:12;;;;;;;7.60;6.65;;;18.80;72.50;;;;;;5059327;28;20427;-81
2023/05/09 10:03:43;;;;;;;7.18;6.57;;;18.90;72.80;;;;;;5059053;28;20352;-82
2023/05/09 10:06:14;;;;;;;7.07;6.38;;;19.00;73.50;;;;;;5059447;28;20031;-83
2023/05/09 10:08:41;;;;;;;8.37;6.20;;;19.00;76.90;;;;;;5057150;28;20378;-81
2023/05/09 10:11:09;;;;;;;6.43;5.82;;;18.80;72.20;;;;;;5058912;28;20024;-83
2023/05/09 10:13:36;;;;;;;6.15;5.65;;;18.70;72.90;;;;;;5057432;28;20108;-82
2023/05/09 10:16:03;;;;;;;7.90;7.18;;;18.80;72.80;;;;;;5039313;28;20032;-82
2023/05/09 10:18:29;;;;;;;7.00;6.40;;;18.70;73.20;;;;;;5052619;28;20033;-81
2023/05/09 10:21:02;;;;;;;9.43;6.85;;;18.50;72.50;;;;;;5059097;28;20348;-81
2023/05/09 10:23:36;;;;;;;10.43;7.47;;;18.50;73.00;;;;;;5059158;28;20032;-82
2023/05/09 10:26:11;;;;;;;10.38;8.07;;;18.50;74.70;;;;;;5058782;28;20066;-82
2023/05/09 10:28:39;;;;;;;7.80;7.20;;;18.50;73.90;;;;;;5080105;28;20040;-81
2023/05/09 10:31:13;;;;;;;8.27;7.47;;;18.30;71.70;;;;;;5097474;28;20028;-79
2023/05/09 10:33:46;;;;;;;8.23;7.50;;;18.40;72.50;;;;;;5095650;28;20366;-80
2023/05/09 10:36:16;;;;;;;7.10;6.40;;;18.30;73.20;;;;;;5096025;28;20023;-80
2023/05/09 10:38:43;;;;;;;6.88;6.22;;;18.50;72.40;;;;;;5096724;28;20027;-81
2023/05/09 10:41:14;;;;;;;7.70;6.68;;;18.40;73.00;;;;;;5095720;28;20165;-80
2023/05/09 10:43:41;;;;;;;6.65;6.05;;;18.50;72.60;;;;;;5095683;28;20024;-80
2023/05/09 10:46:08;;;;;;;6.95;6.35;;;18.60;73.70;;;;;;5084274;28;20459;-80
2023/05/09 10:48:35;;;;;;;6.82;6.20;;;18.60;73.70;;;;;;5084492;28;20032;-80
2023/05/09 10:51:02;;;;;;;6.70;6.20;;;18.60;71.50;;;;;;5095528;28;20115;-80
2023/05/09 10:53:44;;;;;;;7.07;6.47;;;18.80;72.50;;;;;;5095216;28;20096;-81
2023/05/09 10:56:29;;;;;;;7.60;6.90;;;18.90;71.70;;;;;;5094880;28;20016;-83
2023/05/09 10:58:55;;;;;;;11.75;6.40;;;18.90;71.70;;;;;;5097045;28;20059;-81
2023/05/09 11:01:29;;;;;;;6.53;6.03;;;19.60;69.80;;;;;;5095023;28;20024;-82
2023/05/09 11:03:57;;;;;;;6.78;5.97;;;19.60;69.10;;;;;;5095197;28;20024;-80
2023/05/09 11:06:46;;;;;;;7.63;6.55;;;19.90;67.80;;;;;;5095188;28;20030;-82
2023/05/09 11:09:51;;;;;;;7.97;7.18;;;20.10;68.50;;;;;;5096132;28;20123;-81
2023/05/09 11:12:20;;;;;;;7.38;6.43;;;;;;;;;;4987216;28;20092;-81
2023/05/09 11:14:54;;;;;;;6.75;5.97;;;;;;;;;;5009882;28;20028;-84
2023/05/09 11:17:21;;;;;;;7.13;6.50;;;;;;;;;;5008612;28;20053;-84
2023/05/09 11:19:47;;;;;;;7.28;6.57;;;;;;;;;;4996595;28;20030;-82
2023/05/09 11:22:16;;;;;;;6.55;6.05;;;;;;;;;;4998654;28;20031;-83
2023/05/09 11:24:45;;;;;;;7.30;6.70;;;;;;;;;;4994322;28;20035;-84
2023/05/09 11:27:29;;;;;;;6.63;6.18;;;;;;;;;;4994109;28;20104;-81
2023/05/09 11:29:56;;;;;;;6.55;6.05;;;;;;;;;;4977820;28;20153;-81
2023/05/09 11:32:27;;;;;;;6.28;5.68;;;;;;;;;;4994261;28;20030;-82
2023/05/09 11:35:05;;;;;;;6.82;5.70;;;;;;;;;;4997043;28;20114;-82
2023/05/09 11:37:31;;;;;;;5.45;4.70;;;;;;;;;;4995224;28;20046;-85
2023/05/09 11:39:58;;;;;;;4.90;4.50;;;;;;;;;;4977546;28;20030;-83
2023/05/09 11:42:28;;;;;;;5.57;5.18;;;21.70;49.90;;;;;;5014490;28;20033;-83
2023/05/09 11:44:55;;;;;;;5.63;4.90;;;21.50;50.60;;;;;;5075546;28;20025;-85
2023/05/09 11:47:20;;;;;;;5.70;5.30;;;21.50;51.90;;;;;;5081533;28;20039;-84
2023/05/09 11:49:50;;;;;;;5.07;4.78;;;21.40;50.80;;;;;;5094044;28;20035;-84
2023/05/09 11:52:20;;;;;;;5.03;4.72;;;21.60;49.00;;;;;;5092739;28;20364;-83
2023/05/09 11:54:46;;;;;;;4.72;4.43;;;21.30;44.60;;;;;;5075787;28;20078;-84
2023/05/09 11:57:16;;;;;;;4.80;4.50;;;21.40;48.20;;;;;;5093452;28;20028;-84
2023/05/09 11:59:43;;;;;;;5.07;4.68;;;21.00;43.80;;;;;;5078184;28;20115;-83
2023/05/09 12:02:09;;;;;;;5.10;4.70;;;20.50;44.20;;;;;;5088428;28;20458;-85
2023/05/09 12:04:35;;;;;;;5.85;5.15;;;20.80;46.40;;;;;;5083834;28;20035;-84
2023/05/09 12:07:01;;;;;;;5.32;5.00;;;21.10;52.60;;;;;;5081783;28;20116;-83
2023/05/09 12:09:32;;;;;;;5.25;4.85;;;21.40;52.80;;;;;;5092596;28;20039;-82
2023/05/09 12:14:43;;;;;;;6.22;5.82;;;21.20;51.90;;;;;;5109030;27;20316;-85
2023/05/09 12:17:09;;;;;;;6.10;5.60;;;20.90;52.90;;;;;;5089735;28;20028;-84
2023/05/09 12:19:35;;;;;;;5.03;4.72;;;20.60;51.60;;;;;;5090003;28;20023;-83
2023/05/09 12:22:04;;;;;;;5.75;5.35;;;20.40;49.10;;;;;;5091168;28;20447;-83
2023/05/09 12:24:30;;;;;;;6.43;5.82;;;20.60;54.30;;;;;;5089894;28;20036;-83
2023/05/09 12:26:57;;;;;;;5.32;4.93;;;20.50;50.20;;;;;;5089611;28;20059;-82
2023/05/09 12:29:24;;;;;;;5.70;5.30;;;20.60;52.20;;;;;;5080903;28;20044;-82
2023/05/09 12:31:51;;;;;;;5.22;4.82;;;20.70;50.50;;;;;;5074081;28;20032;-83
2023/05/09 12:34:18;;;;;;;8.68;5.53;;;20.40;50.30;;;;;;5089526;28;20025;-82
2023/05/09 12:36:49;;;;;;;6.28;5.38;;;20.40;50.60;;;;;;5089414;28;20028;-81
2023/05/09 12:39:20;;;;;;;5.50;5.10;;;20.50;49.20;;;;;;5089670;28;20023;-82
2023/05/09 12:41:50;;;;;;;6.43;5.93;;;20.30;49.20;;;;;;5089208;28;20024;-82
2023/05/09 12:44:23;;;;;;;5.18;4.72;;;20.20;50.50;;;;;;5089382;28;20412;-82
2023/05/09 12:47:01;;;;;;;5.60;5.20;;;20.10;49.40;;;;;;5089074;28;20020;-82
2023/05/09 12:49:28;;;;;;;5.18;4.78;;;20.10;51.50;;;;;;5089613;28;20021;-82
2023/05/09 12:51:55;;;;;;;6.22;5.63;;;19.90;52.00;;;;;;5089125;28;20025;-82
2023/05/09 12:54:28;;;;;;;8.63;6.15;;;19.80;52.50;;;;;;5089324;28;20036;-82
2023/05/09 12:56:57;;;;;;;5.55;5.10;;;19.80;53.80;;;;;;5089835;28;20359;-82
2023/05/09 12:59:27;;;;;;;5.30;4.90;;;19.50;51.20;;;;;;5090210;28;20025;-81